createdAt,value
2022-12-20T00:02:07.361Z,34.10
2022-12-20T00:04:35.567Z,34.00
2022-12-20T00:07:03.734Z,34.00
2022-12-20T00:09:31.879Z,34.30
2022-12-20T00:12:00.430Z,34.80
2022-12-20T00:14:29.904Z,35.10
2022-12-20T00:16:58.034Z,35.20
2022-12-20T00:19:26.132Z,35.30
2022-12-20T00:21:54.254Z,35.40
2022-12-20T00:24:26.017Z,35.30
2022-12-20T00:26:54.673Z,34.90
2022-12-20T00:29:22.762Z,34.80
2022-12-20T00:31:52.387Z,34.60
2022-12-20T00:34:21.101Z,34.40
2022-12-20T00:36:49.200Z,34.30
2022-12-20T00:39:17.348Z,34.10
2022-12-20T00:41:45.441Z,34.00
2022-12-20T00:44:13.711Z,34.10
2022-12-20T00:46:41.898Z,34.80
2022-12-20T00:49:11.661Z,35.00
2022-12-20T00:51:39.795Z,35.20
2022-12-20T00:54:10.963Z,35.30
2022-12-20T00:56:42.077Z,34.80
2022-12-20T00:59:10.226Z,34.60
2022-12-20T01:01:38.490Z,34.50
2022-12-20T01:04:06.826Z,34.40
2022-12-20T01:06:36.331Z,34.30
2022-12-20T01:09:05.027Z,34.10
2022-12-20T01:11:34.050Z,34.00
2022-12-20T01:14:03.614Z,34.00
2022-12-20T01:16:32.994Z,34.50
2022-12-20T01:19:01.556Z,34.90
2022-12-20T01:21:29.827Z,35.20
2022-12-20T01:23:59.366Z,35.20
2022-12-20T01:26:29.151Z,34.90
2022-12-20T01:28:58.651Z,34.70
2022-12-20T01:31:27.111Z,34.50
2022-12-20T01:33:55.264Z,34.30
2022-12-20T01:36:25.235Z,34.20
2022-12-20T01:38:57.244Z,34.10
2022-12-20T01:41:26.704Z,34.00
2022-12-20T01:43:55.550Z,33.90
2022-12-20T01:46:24.370Z,34.40
2022-12-20T01:48:53.931Z,34.70
2022-12-20T01:53:50.143Z,35.20
2022-12-20T01:56:18.255Z,35.10
2022-12-20T01:58:47.700Z,34.70
2022-12-20T02:01:15.862Z,34.50
2022-12-20T02:03:44.377Z,34.40
2022-12-20T02:06:17.023Z,34.20
2022-12-20T02:08:45.276Z,34.10
2022-12-20T02:11:20.289Z,34.00
2022-12-20T02:13:52.705Z,33.90
2022-12-20T02:16:24.011Z,34.20
2022-12-20T02:18:53.973Z,34.60
2022-12-20T02:21:28.959Z,35.00
2022-12-20T02:24:37.875Z,35.10
2022-12-20T02:27:47.621Z,35.20
2022-12-20T02:30:17.594Z,35.20
2022-12-20T02:32:51.765Z,34.90
2022-12-20T02:35:24.316Z,34.70
2022-12-20T02:37:53.396Z,34.50
2022-12-20T02:40:23.924Z,34.30
2022-12-20T02:42:53.157Z,34.20
2022-12-20T02:45:22.888Z,34.10
2022-12-20T02:47:52.047Z,34.00
2022-12-20T02:50:22.966Z,33.90
2022-12-20T02:52:51.254Z,34.40
2022-12-20T02:55:19.500Z,34.80
2022-12-20T02:57:56.101Z,35.10
2022-12-20T03:00:29.291Z,35.20
2022-12-20T03:03:15.222Z,34.80
2022-12-20T03:05:45.594Z,34.70
2022-12-20T03:08:13.778Z,34.40
2022-12-20T03:10:41.901Z,34.20
2022-12-20T03:13:09.994Z,34.10
2022-12-20T03:15:39.515Z,34.00
2022-12-20T03:18:08.695Z,34.00
2022-12-20T03:20:36.850Z,33.90
2022-12-20T03:23:04.988Z,34.40
2022-12-20T03:25:33.130Z,34.80
2022-12-20T03:28:01.199Z,35.10
2022-12-20T03:30:29.293Z,35.20
2022-12-20T03:32:59.215Z,34.90
2022-12-20T03:35:27.327Z,34.70
2022-12-20T03:37:55.731Z,34.50
2022-12-20T03:40:23.868Z,34.40
2022-12-20T03:42:52.026Z,34.10
2022-12-20T03:45:20.179Z,34.20
2022-12-20T03:47:48.759Z,33.90
2022-12-20T03:50:18.326Z,33.80
2022-12-20T03:52:46.557Z,34.20
2022-12-20T03:55:14.659Z,34.60
2022-12-20T03:57:43.116Z,34.90
2022-12-20T04:00:13.513Z,35.10
2022-12-20T04:02:41.766Z,35.10
2022-12-20T04:05:10.307Z,34.70
2022-12-20T04:07:39.802Z,34.50
2022-12-20T04:10:09.495Z,34.30
2022-12-20T04:12:37.614Z,34.20
2022-12-20T04:15:06.408Z,34.00
2022-12-20T04:17:34.491Z,34.00
2022-12-20T04:20:19.050Z,33.80
2022-12-20T04:22:48.715Z,34.00
2022-12-20T04:25:17.451Z,34.50
2022-12-20T04:27:45.544Z,34.90
2022-12-20T04:30:14.305Z,35.10
2022-12-20T04:32:42.407Z,35.30
2022-12-20T04:35:11.035Z,35.20
2022-12-20T04:37:39.280Z,35.10
2022-12-20T04:40:10.591Z,34.80
2022-12-20T04:42:38.671Z,34.70
2022-12-20T04:45:07.519Z,34.50
2022-12-20T04:47:35.608Z,34.30
2022-12-20T04:50:03.692Z,34.20
2022-12-20T04:52:49.360Z,34.00
2022-12-20T04:55:19.412Z,33.90
2022-12-20T04:57:47.497Z,34.00
2022-12-20T05:00:17.329Z,34.50
2022-12-20T05:02:45.629Z,34.90
2022-12-20T05:05:14.198Z,35.20
2022-12-20T05:07:42.289Z,35.20
2022-12-20T05:10:11.171Z,34.80
2022-12-20T05:12:41.028Z,34.60
2022-12-20T05:15:10.218Z,34.40
2022-12-20T05:17:38.312Z,34.30
2022-12-20T05:20:07.952Z,34.20
2022-12-20T05:22:53.286Z,34.00
2022-12-20T05:25:38.578Z,33.90
2022-12-20T05:28:08.065Z,33.80
2022-12-20T05:30:36.165Z,34.50
2022-12-20T05:33:04.444Z,34.80
2022-12-20T05:35:32.578Z,35.10
2022-12-20T05:38:01.268Z,35.20
2022-12-20T05:40:29.384Z,34.80
2022-12-20T05:42:57.508Z,34.60
2022-12-20T05:45:27.162Z,34.40
2022-12-20T05:47:55.293Z,34.30
2022-12-20T05:50:23.422Z,34.10
2022-12-20T05:52:51.622Z,34.00
2022-12-20T05:55:20.043Z,33.80
2022-12-20T05:57:48.098Z,33.70
2022-12-20T06:00:16.830Z,34.30
2022-12-20T06:02:47.156Z,34.70
2022-12-20T06:05:17.626Z,35.00
2022-12-20T06:07:45.685Z,35.10
2022-12-20T06:10:13.778Z,34.90
2022-12-20T06:12:41.872Z,34.70
2022-12-20T06:15:10.996Z,34.40
2022-12-20T06:17:39.113Z,34.30
2022-12-20T06:20:09.964Z,34.10
2022-12-20T06:22:38.781Z,34.00
2022-12-20T06:25:09.293Z,33.90
2022-12-20T06:27:37.519Z,33.80
2022-12-20T06:30:06.317Z,34.00
2022-12-20T06:32:34.365Z,34.50
2022-12-20T06:35:02.411Z,34.90
2022-12-20T06:37:32.381Z,35.10
2022-12-20T06:40:00.886Z,35.20
2022-12-20T06:42:28.955Z,35.20
2022-12-20T06:44:57.020Z,35.10
2022-12-20T06:47:25.169Z,34.80
2022-12-20T06:49:53.196Z,34.60
2022-12-20T06:52:21.486Z,34.40
2022-12-20T06:54:50.913Z,34.20
2022-12-20T06:57:19.480Z,34.10
2022-12-20T06:59:47.489Z,34.00
2022-12-20T07:02:15.872Z,33.90
2022-12-20T07:04:49.667Z,33.90
2022-12-20T07:07:18.336Z,34.50
2022-12-20T07:09:46.482Z,34.90
2022-12-20T07:12:15.868Z,35.10
2022-12-20T07:14:43.948Z,35.10
2022-12-20T07:17:12.125Z,34.80
2022-12-20T07:19:43.051Z,34.60
2022-12-20T07:22:15.340Z,34.40
2022-12-20T07:24:43.910Z,34.30
2022-12-20T07:27:12.083Z,34.10
2022-12-20T07:29:42.164Z,34.00
2022-12-20T07:32:10.394Z,33.90
2022-12-20T07:34:38.547Z,33.80
2022-12-20T07:37:06.613Z,34.40
2022-12-20T07:39:34.688Z,34.80
2022-12-20T07:42:02.800Z,35.00
2022-12-20T07:44:30.934Z,35.20
2022-12-20T07:47:00.410Z,34.90
2022-12-20T07:49:28.511Z,34.60
2022-12-20T07:51:57.930Z,34.40
2022-12-20T07:54:27.855Z,34.30
2022-12-20T07:56:58.374Z,34.10
2022-12-20T07:59:28.326Z,34.00
2022-12-20T08:02:02.332Z,33.90
2022-12-20T08:04:34.322Z,33.80
2022-12-20T08:07:03.884Z,34.10
2022-12-20T08:09:32.930Z,34.70
2022-12-20T08:12:04.105Z,35.10
2022-12-20T08:14:41.011Z,35.20
2022-12-20T08:17:09.252Z,34.90
2022-12-20T08:19:39.192Z,34.60
2022-12-20T08:22:07.288Z,34.40
2022-12-20T08:24:35.581Z,34.20
2022-12-20T08:27:03.742Z,34.10
2022-12-20T08:29:31.870Z,34.10
2022-12-20T08:31:59.990Z,33.90
2022-12-20T08:34:28.156Z,33.80
2022-12-20T08:36:57.610Z,34.00
2022-12-20T08:39:25.701Z,34.50
2022-12-20T08:41:53.930Z,34.80
2022-12-20T08:44:22.095Z,35.10
2022-12-20T08:46:50.224Z,35.10
2022-12-20T08:49:18.310Z,35.20
2022-12-20T08:51:46.432Z,35.10
2022-12-20T08:54:15.933Z,34.70
2022-12-20T08:56:44.062Z,34.60
2022-12-20T08:59:12.291Z,34.40
2022-12-20T09:01:40.819Z,34.20
2022-12-20T09:04:10.909Z,34.00
2022-12-20T09:06:39.094Z,34.00
2022-12-20T09:09:07.905Z,33.80
2022-12-20T09:11:37.366Z,33.80
2022-12-20T09:14:05.425Z,34.60
2022-12-20T09:16:33.917Z,34.80
2022-12-20T09:19:05.681Z,35.00
2022-12-20T09:21:34.515Z,35.10
2022-12-20T09:24:02.712Z,34.70
2022-12-20T09:26:30.979Z,34.50
2022-12-20T09:29:02.101Z,34.40
2022-12-20T09:31:30.727Z,34.30
2022-12-20T09:33:59.374Z,34.10
2022-12-20T09:36:28.377Z,33.90
2022-12-20T09:38:56.620Z,33.80
2022-12-20T09:41:29.411Z,33.70
2022-12-20T09:43:58.521Z,34.10
2022-12-20T09:46:27.955Z,34.70
2022-12-20T09:48:57.373Z,35.00
2022-12-20T09:51:35.183Z,35.00
2022-12-20T09:54:07.633Z,34.70
2022-12-20T09:56:37.589Z,34.60
2022-12-20T09:59:06.515Z,34.40
2022-12-20T10:01:40.084Z,34.20
2022-12-20T10:04:13.710Z,34.10
2022-12-20T10:06:46.549Z,33.90
2022-12-20T10:09:17.900Z,33.80
2022-12-20T10:11:52.593Z,33.70
2022-12-20T10:14:38.992Z,34.20
2022-12-20T10:17:11.474Z,34.70
2022-12-20T10:19:51.724Z,35.00
2022-12-20T10:22:21.232Z,35.00
2022-12-20T10:24:52.744Z,34.70
2022-12-20T10:27:21.357Z,34.40
2022-12-20T10:29:50.258Z,34.30
2022-12-20T10:32:21.594Z,34.10
2022-12-20T10:34:53.277Z,34.00
2022-12-20T10:37:21.379Z,33.80
2022-12-20T10:39:50.195Z,33.80
2022-12-20T10:42:38.174Z,33.60
2022-12-20T10:45:07.445Z,34.20
2022-12-20T10:47:40.078Z,34.70
2022-12-20T10:50:15.735Z,34.90
2022-12-20T10:52:43.927Z,35.00
2022-12-20T10:55:34.924Z,35.00
2022-12-20T10:58:04.812Z,35.00
2022-12-20T11:00:32.935Z,34.60
2022-12-20T11:03:07.225Z,34.50
2022-12-20T11:05:35.575Z,34.30
2022-12-20T11:11:12.703Z,34.00
2022-12-20T11:13:40.999Z,33.80
2022-12-20T11:16:30.146Z,33.70
2022-12-20T11:19:07.186Z,33.80
2022-12-20T11:21:39.137Z,34.50
2022-12-20T11:24:12.064Z,34.80
2022-12-20T11:26:46.689Z,35.00
2022-12-20T11:29:23.548Z,34.90
2022-12-20T11:31:55.647Z,34.60
2022-12-20T11:34:30.674Z,34.40
2022-12-20T11:37:19.349Z,34.20
2022-12-20T11:40:08.082Z,34.00
2022-12-20T11:42:43.959Z,33.90
2022-12-20T11:45:16.020Z,33.80
2022-12-20T11:47:51.947Z,33.70
2022-12-20T11:50:42.493Z,34.00
2022-12-20T11:53:14.451Z,34.50
2022-12-20T11:55:46.123Z,34.80
2022-12-20T11:58:19.372Z,34.90
2022-12-20T12:00:54.084Z,34.60
2022-12-20T12:03:25.906Z,34.40
2022-12-20T12:05:56.627Z,34.20
2022-12-20T12:08:26.523Z,34.20
2022-12-20T12:10:57.603Z,34.00
2022-12-20T12:13:27.563Z,33.80
2022-12-20T12:15:58.469Z,33.80
2022-12-20T12:18:29.068Z,33.70
2022-12-20T12:21:08.254Z,34.10
2022-12-20T12:23:41.690Z,34.50
2022-12-20T12:26:13.387Z,34.80
2022-12-20T12:28:41.814Z,34.90
2022-12-20T12:31:12.951Z,34.60
2022-12-20T12:33:43.763Z,34.40
2022-12-20T12:36:29.389Z,34.20
2022-12-20T12:39:28.861Z,34.10
2022-12-20T12:42:10.470Z,33.90
2022-12-20T12:44:41.586Z,33.80
2022-12-20T12:47:15.918Z,33.70
2022-12-20T12:49:44.913Z,33.60
2022-12-20T12:52:33.809Z,34.20
2022-12-20T12:55:04.072Z,34.70
2022-12-20T12:57:32.373Z,34.80
2022-12-20T13:00:00.456Z,34.90
2022-12-20T13:02:52.617Z,35.00
2022-12-20T13:05:34.623Z,35.00
2022-12-20T13:08:04.714Z,34.60
2022-12-20T13:10:58.805Z,34.40
2022-12-20T13:13:26.955Z,34.10
2022-12-20T13:16:48.685Z,34.10
2022-12-20T13:19:17.869Z,33.90
2022-12-20T13:21:46.725Z,33.80
2022-12-20T13:24:53.194Z,33.70
2022-12-20T13:27:32.377Z,34.10
2022-12-20T13:30:30.627Z,34.60
2022-12-20T13:33:23.467Z,34.90
2022-12-20T13:35:59.932Z,34.90
2022-12-20T13:38:53.198Z,34.50
2022-12-20T13:41:42.745Z,34.40
2022-12-20T13:44:34.315Z,34.20
2022-12-20T13:47:07.479Z,34.00
2022-12-20T13:49:37.792Z,33.90
2022-12-20T13:52:14.967Z,33.80
2022-12-20T13:54:44.267Z,33.60
2022-12-20T13:57:16.777Z,33.90
2022-12-20T13:59:47.271Z,34.50
2022-12-20T14:02:20.807Z,34.90
2022-12-20T14:04:54.984Z,34.90
2022-12-20T14:07:23.370Z,34.60
2022-12-20T14:09:56.670Z,34.40
2022-12-20T14:12:31.344Z,34.20
2022-12-20T14:15:04.528Z,34.10
2022-12-20T14:17:33.508Z,33.90
2022-12-20T14:20:18.018Z,33.80
2022-12-20T14:22:51.447Z,33.70
2022-12-20T14:25:30.330Z,33.60
2022-12-20T14:27:59.751Z,34.00
2022-12-20T14:30:30.351Z,34.60
2022-12-20T14:32:58.450Z,34.90
2022-12-20T14:35:26.550Z,34.90
2022-12-20T14:37:56.091Z,34.70
2022-12-20T14:40:24.414Z,34.40
2022-12-20T14:42:52.613Z,34.20
2022-12-20T14:45:25.777Z,34.10
2022-12-20T14:48:01.867Z,34.00
2022-12-20T14:50:32.297Z,33.80
2022-12-20T14:53:00.379Z,33.70
2022-12-20T14:55:32.975Z,33.50
2022-12-20T14:58:01.009Z,34.00
2022-12-20T15:00:31.667Z,34.40
2022-12-20T15:03:04.374Z,34.80
2022-12-20T15:05:49.705Z,34.90
2022-12-20T15:08:20.431Z,35.00
2022-12-20T15:11:03.684Z,34.90
2022-12-20T15:13:33.556Z,34.70
2022-12-20T15:16:04.842Z,34.40
2022-12-20T15:18:33.338Z,34.30
2022-12-20T15:21:06.741Z,34.10
2022-12-20T15:23:34.841Z,34.00
2022-12-20T15:26:03.028Z,33.80
2022-12-20T15:28:31.110Z,33.70
2022-12-20T15:30:59.635Z,33.60
2022-12-20T15:33:31.089Z,34.00
2022-12-20T15:35:59.224Z,34.50
2022-12-20T15:39:03.635Z,34.80
2022-12-20T15:41:20.403Z,34.90
2022-12-20T15:43:48.766Z,34.80
2022-12-20T15:46:17.352Z,34.50
2022-12-20T15:48:46.877Z,34.30
2022-12-20T15:51:17.730Z,34.10
2022-12-20T15:53:45.866Z,33.90
2022-12-20T15:56:17.876Z,33.80
2022-12-20T15:58:47.519Z,33.70
2022-12-20T16:01:17.261Z,33.60
2022-12-20T16:03:47.372Z,33.90
2022-12-20T16:06:15.611Z,34.40
2022-12-20T16:08:43.836Z,34.70
2022-12-20T16:11:18.986Z,34.80
2022-12-20T16:13:47.319Z,35.30
2022-12-20T16:16:18.336Z,34.50
2022-12-20T16:18:47.986Z,34.30
2022-12-20T16:21:17.941Z,34.10
2022-12-20T16:23:46.301Z,34.00
2022-12-20T16:26:14.963Z,33.80
2022-12-20T16:28:43.335Z,33.70
2022-12-20T16:31:12.601Z,33.60
2022-12-20T16:33:41.231Z,33.70
2022-12-20T16:36:14.802Z,34.20
2022-12-20T16:38:50.356Z,34.70
2022-12-20T16:41:19.714Z,34.90
2022-12-20T16:43:48.345Z,35.00
2022-12-20T16:46:17.991Z,34.40
2022-12-20T16:48:49.244Z,34.40
2022-12-20T16:51:26.336Z,34.20
2022-12-20T16:54:17.994Z,34.00
2022-12-20T16:56:44.015Z,33.90
2022-12-20T16:59:22.515Z,33.70
2022-12-20T17:01:53.125Z,33.60
2022-12-20T17:04:21.775Z,33.70
2022-12-20T17:06:51.689Z,34.30
2022-12-20T17:09:20.346Z,34.70
2022-12-20T17:11:50.157Z,34.90
2022-12-20T17:14:20.073Z,34.80
2022-12-20T17:16:51.610Z,34.40
2022-12-20T17:19:19.939Z,34.20
2022-12-20T17:24:35.633Z,33.50
2022-12-20T17:27:04.341Z,35.10
2022-12-20T17:29:32.558Z,31.80
2022-12-20T17:34:30.255Z,30.00
2022-12-20T17:36:58.973Z,29.40
2022-12-20T17:39:27.316Z,29.00
2022-12-20T17:41:57.529Z,28.80
2022-12-20T17:44:27.305Z,28.70
2022-12-20T17:46:56.195Z,28.70
2022-12-20T17:51:53.289Z,41.70
2022-12-20T17:54:23.418Z,39.20
2022-12-20T17:56:52.195Z,27.90
2022-12-20T17:59:22.416Z,27.70
2022-12-20T18:01:50.749Z,27.60
2022-12-20T18:04:19.083Z,27.40
2022-12-20T18:06:47.405Z,27.30
2022-12-20T18:09:17.320Z,27.20
2022-12-20T18:11:45.853Z,27.20
2022-12-20T18:14:14.808Z,27.30
2022-12-20T18:16:44.592Z,27.40
2022-12-20T18:19:16.084Z,27.40
2022-12-20T18:21:45.112Z,27.50
2022-12-20T18:24:13.295Z,27.30
2022-12-20T18:26:42.046Z,27.20
2022-12-20T18:29:11.260Z,27.20
2022-12-20T18:31:39.504Z,27.10
2022-12-20T18:34:12.362Z,27.10
2022-12-20T18:36:40.522Z,27.00
2022-12-20T18:39:09.736Z,26.90
2022-12-20T18:41:37.978Z,26.90
2022-12-20T18:44:08.210Z,27.00
2022-12-20T18:46:36.603Z,27.20
2022-12-20T18:49:04.995Z,27.20
2022-12-20T18:51:36.675Z,27.20
2022-12-20T18:54:06.730Z,27.20
2022-12-20T18:56:36.213Z,27.10
2022-12-20T18:59:10.870Z,27.10
2022-12-20T19:01:40.245Z,27.00
2022-12-20T19:04:08.679Z,26.90
2022-12-20T19:06:38.211Z,26.90
2022-12-20T19:09:07.864Z,26.90
2022-12-20T19:11:36.007Z,27.00
2022-12-20T19:14:04.124Z,27.10
2022-12-20T19:16:32.959Z,27.30
2022-12-20T19:19:01.416Z,27.30
2022-12-20T19:21:31.107Z,27.40
2022-12-20T19:24:01.539Z,27.40
2022-12-20T19:26:29.845Z,27.40
2022-12-20T19:28:58.260Z,27.30
2022-12-20T19:31:27.385Z,27.20
2022-12-20T19:33:56.504Z,27.10
2022-12-20T19:36:26.032Z,27.00
2022-12-20T19:38:55.875Z,27.10
2022-12-20T19:41:26.145Z,27.00
2022-12-20T19:43:54.317Z,26.90
2022-12-20T19:46:29.287Z,27.00
2022-12-20T19:48:58.705Z,27.10
2022-12-20T19:51:27.200Z,27.30
2022-12-20T19:53:55.506Z,27.40
2022-12-20T19:56:26.318Z,27.30
2022-12-20T19:58:55.315Z,27.30
2022-12-20T20:01:25.825Z,27.20
2022-12-20T20:03:54.213Z,27.20
2022-12-20T20:06:22.600Z,27.20
2022-12-20T20:08:50.914Z,27.10
2022-12-20T20:11:19.166Z,27.00
2022-12-20T20:13:48.610Z,27.10
2022-12-20T20:16:21.816Z,27.20
2022-12-20T20:18:50.810Z,27.40
2022-12-20T20:21:21.458Z,27.50
2022-12-20T20:23:50.111Z,27.40
2022-12-20T20:26:19.516Z,27.40
2022-12-20T20:28:48.949Z,27.30
2022-12-20T20:31:18.773Z,27.30
2022-12-20T20:33:46.999Z,27.30
2022-12-20T20:36:15.713Z,27.20
2022-12-20T20:38:43.844Z,27.20
2022-12-20T20:41:11.846Z,27.20
2022-12-20T20:43:39.897Z,27.30
2022-12-20T20:46:10.256Z,27.40
2022-12-20T20:48:38.433Z,27.50
2022-12-20T20:51:06.805Z,27.60
2022-12-20T20:53:35.074Z,27.50
2022-12-20T20:56:03.171Z,27.40
2022-12-20T20:58:32.409Z,27.30
2022-12-20T21:01:01.556Z,27.30
2022-12-20T21:03:31.581Z,27.30
2022-12-20T21:08:47.851Z,27.60
2022-12-20T21:11:16.154Z,27.90
2022-12-20T21:13:44.453Z,28.40
2022-12-20T21:16:13.993Z,29.40
2022-12-20T21:18:43.488Z,29.50
2022-12-20T21:21:13.430Z,29.90
2022-12-20T21:23:44.531Z,30.30
2022-12-20T21:26:12.573Z,30.80
2022-12-20T21:28:41.646Z,31.00
2022-12-20T21:31:10.911Z,31.00
2022-12-20T21:36:10.196Z,31.00
2022-12-20T21:41:07.989Z,58.40
2022-12-20T21:46:04.585Z,57.10
2022-12-20T21:48:32.725Z,32.30
2022-12-20T21:51:01.459Z,32.70
2022-12-20T21:53:30.959Z,33.10
2022-12-20T21:55:59.364Z,33.10
2022-12-20T21:58:28.155Z,33.10
2022-12-20T22:00:56.499Z,33.00
2022-12-20T22:03:25.035Z,32.90
2022-12-20T22:05:53.973Z,32.90
2022-12-20T22:08:22.229Z,32.90
2022-12-20T22:10:58.562Z,32.90
2022-12-20T22:13:26.610Z,32.90
2022-12-20T22:15:54.736Z,33.20
2022-12-20T22:20:51.192Z,33.40
2022-12-20T22:23:19.225Z,33.70
2022-12-20T22:25:47.252Z,33.60
2022-12-20T22:28:16.656Z,33.50
2022-12-20T22:30:44.723Z,33.40
2022-12-20T22:33:12.774Z,33.40
2022-12-20T22:35:41.160Z,33.30
2022-12-20T22:38:09.216Z,33.10
2022-12-20T22:40:37.238Z,33.10
2022-12-20T22:43:05.238Z,33.40
2022-12-20T22:45:34.720Z,33.50
2022-12-20T22:48:02.749Z,33.90
2022-12-20T22:50:30.777Z,34.00
2022-12-20T22:55:27.444Z,33.20
2022-12-20T22:57:55.449Z,33.60
2022-12-20T23:00:23.665Z,33.40
2022-12-20T23:02:53.235Z,33.20
2022-12-20T23:05:21.339Z,33.20
2022-12-20T23:07:49.319Z,33.10
2022-12-20T23:10:33.094Z,33.50
2022-12-20T23:13:18.502Z,33.70
2022-12-20T23:15:47.926Z,33.90
2022-12-20T23:18:17.312Z,34.40
2022-12-20T23:21:07.697Z,34.60
2022-12-20T23:23:35.713Z,35.80
2022-12-20T23:26:11.423Z,35.50
2022-12-20T23:28:39.503Z,36.00
2022-12-20T23:31:07.937Z,49.20
2022-12-20T23:33:37.377Z,34.90
2022-12-20T23:36:06.682Z,34.80
2022-12-20T23:38:34.752Z,34.60
2022-12-20T23:41:02.796Z,34.50
2022-12-20T23:43:30.853Z,34.40
2022-12-20T23:46:03.811Z,34.60
2022-12-20T23:48:32.206Z,35.00
2022-12-20T23:51:01.599Z,35.30
2022-12-20T23:53:29.751Z,35.50
2022-12-20T23:55:59.504Z,35.50
2022-12-20T23:58:27.632Z,35.30
